Time;durP1;ratioP1;P1;durP2;ratioP2;P2;SDS_P1;SDS_P2;PMS_P1;PMS_P2;Temp;Humidity;BMP_temperature;BMP_pressure;BME280_temperature;BME280_humidity;BME280_pressure;Samples;Min_cycle;Max_cycle;Signal;HPM_P1;HPM_P2
2022/07/29 00:02:08;;;;;;;4.13;3.83;;;19.50;99.90;;;;;;5052031;28;20206;-63
2022/07/29 00:04:36;;;;;;;5.03;4.53;;;19.60;99.90;;;;;;5050828;28;20210;-64
2022/07/29 00:07:03;;;;;;;7.17;4.03;;;19.60;99.90;;;;;;5051580;28;20532;-63
2022/07/29 00:09:29;;;;;;;4.57;4.17;;;19.60;99.90;;;;;;5051156;28;20644;-63
2022/07/29 00:11:59;;;;;;;6.33;3.93;;;19.60;99.90;;;;;;5051531;28;20206;-63
2022/07/29 00:14:24;;;;;;;4.67;4.27;;;19.60;99.90;;;;;;5050873;28;20224;-63
2022/07/29 00:16:50;;;;;;;3.80;3.60;;;19.60;99.90;;;;;;5051523;28;20171;-64
2022/07/29 00:19:16;;;;;;;4.47;4.10;;;19.60;99.90;;;;;;5051234;28;20263;-64
2022/07/29 00:21:41;;;;;;;5.07;4.47;;;19.60;99.90;;;;;;5051532;28;20190;-63
2022/07/29 00:24:07;;;;;;;5.00;4.50;;;19.60;99.90;;;;;;5050685;28;20202;-64
2022/07/29 00:26:33;;;;;;;4.03;3.73;;;19.60;99.90;;;;;;5051283;28;20214;-64
2022/07/29 00:29:00;;;;;;;4.47;4.07;;;19.70;99.90;;;;;;5051190;28;20555;-63
2022/07/29 00:31:26;;;;;;;4.67;4.30;;;19.70;99.90;;;;;;5051460;28;20228;-63
2022/07/29 00:33:52;;;;;;;6.73;4.17;;;19.60;99.90;;;;;;5050815;28;20206;-64
2022/07/29 00:36:18;;;;;;;8.03;5.20;;;19.60;99.90;;;;;;5051277;28;20209;-64
2022/07/29 00:38:45;;;;;;;4.40;4.10;;;19.60;99.90;;;;;;5051036;28;20174;-65
2022/07/29 00:41:11;;;;;;;4.67;4.27;;;19.60;99.90;;;;;;5031498;28;20591;-64
2022/07/29 00:43:37;;;;;;;5.13;4.73;;;19.60;99.90;;;;;;5030796;28;20171;-64
2022/07/29 00:46:03;;;;;;;4.20;3.80;;;19.50;99.90;;;;;;5050022;28;20182;-64
2022/07/29 00:48:28;;;;;;;5.27;4.53;;;19.50;99.90;;;;;;5051262;28;20174;-64
2022/07/29 00:50:57;;;;;;;4.57;4.07;;;19.50;99.90;;;;;;5050942;28;20202;-64
2022/07/29 00:53:24;;;;;;;4.83;4.47;;;19.50;99.90;;;;;;5051387;28;20173;-64
2022/07/29 00:55:50;;;;;;;4.83;4.30;;;19.40;99.90;;;;;;5050902;28;20195;-65
2022/07/29 00:58:15;;;;;;;4.67;4.20;;;19.40;99.90;;;;;;5051454;28;20674;-63
2022/07/29 01:00:41;;;;;;;4.40;4.10;;;19.30;99.90;;;;;;5050727;28;20182;-63
2022/07/29 01:03:07;;;;;;;4.60;4.30;;;19.20;99.90;;;;;;5053723;28;20178;-64
2022/07/29 01:05:34;;;;;;;4.70;4.13;;;19.20;99.90;;;;;;5054701;28;20336;-63
2022/07/29 01:08:01;;;;;;;4.03;3.83;;;19.10;99.90;;;;;;5054614;28;20191;-60
2022/07/29 01:10:27;;;;;;;6.70;4.20;;;19.00;99.90;;;;;;5054941;28;20202;-64
2022/07/29 01:12:56;;;;;;;4.30;3.90;;;19.00;99.90;;;;;;5054740;28;20178;-64
2022/07/29 01:15:22;;;;;;;4.57;4.10;;;18.90;99.90;;;;;;5054421;28;20203;-65
2022/07/29 01:18:11;;;;;;;4.60;4.20;;;18.90;99.90;;;;;;5054666;28;20186;-62
2022/07/29 01:20:42;;;;;;;4.87;4.37;;;18.90;99.90;;;;;;5054542;28;20178;-63
2022/07/29 01:23:37;;;;;;;4.17;3.87;;;18.90;99.90;;;;;;5054559;28;20187;-64
2022/07/29 01:26:37;;;;;;;7.67;4.10;;;18.90;99.90;;;;;;5054679;28;20209;-65
2022/07/29 01:29:05;;;;;;;5.10;4.43;;;18.90;99.90;;;;;;5034807;28;20184;-66
2022/07/29 01:31:54;;;;;;;4.17;3.87;;;18.90;99.90;;;;;;5034405;28;20210;-64
2022/07/29 01:34:24;;;;;;;4.20;3.90;;;18.90;99.90;;;;;;5054028;28;20202;-65
2022/07/29 01:37:23;;;;;;;4.97;4.20;;;18.80;99.90;;;;;;5054141;28;20229;-64
2022/07/29 01:39:51;;;;;;;4.50;4.20;;;18.80;99.90;;;;;;5046315;28;20187;-65
2022/07/29 01:42:32;;;;;;;6.23;4.10;;;18.80;99.90;;;;;;5054165;28;20171;-66
2022/07/29 01:45:10;;;;;;;7.17;5.23;;;18.80;99.90;;;;;;5053842;28;20244;-65
2022/07/29 01:47:45;;;;;;;4.20;4.00;;;18.80;99.90;;;;;;5053701;28;20193;-65
2022/07/29 01:50:15;;;;;;;4.17;3.87;;;18.80;99.90;;;;;;5054276;28;20217;-63
2022/07/29 01:52:52;;;;;;;4.00;3.70;;;18.80;99.90;;;;;;5053723;28;20229;-65
2022/07/29 01:55:22;;;;;;;3.97;3.67;;;18.80;99.90;;;;;;5053806;28;20663;-66
2022/07/29 01:57:48;;;;;;;6.60;4.20;;;18.80;99.90;;;;;;5053766;28;20174;-65
2022/07/29 02:00:15;;;;;;;5.27;4.87;;;18.80;99.90;;;;;;5054391;28;20210;-66
2022/07/29 02:02:44;;;;;;;4.80;4.50;;;18.90;99.90;;;;;;5053518;28;20191;-62
2022/07/29 02:05:13;;;;;;;5.13;4.83;;;18.90;99.90;;;;;;5053679;28;20195;-66
2022/07/29 02:07:41;;;;;;;5.37;4.90;;;18.90;99.90;;;;;;5053909;28;20271;-66
2022/07/29 02:10:08;;;;;;;5.73;5.37;;;18.90;99.90;;;;;;5054430;28;20548;-65
2022/07/29 02:12:36;;;;;;;6.27;5.67;;;18.90;99.90;;;;;;5053368;28;20218;-65
2022/07/29 02:15:04;;;;;;;5.17;4.77;;;18.90;99.90;;;;;;5052544;28;20207;-63
2022/07/29 02:17:39;;;;;;;5.63;4.37;;;18.80;99.90;;;;;;5053422;28;20179;-66
2022/07/29 02:20:06;;;;;;;5.97;3.87;;;18.90;99.90;;;;;;5053623;28;20190;-62
2022/07/29 02:22:37;;;;;;;4.07;3.77;;;18.90;99.90;;;;;;5053532;28;20560;-64
2022/07/29 02:25:04;;;;;;;4.20;3.90;;;18.90;99.90;;;;;;5052856;28;20286;-63
2022/07/29 02:27:33;;;;;;;6.30;4.53;;;18.90;99.90;;;;;;5053402;28;20166;-64
2022/07/29 02:30:02;;;;;;;4.83;4.43;;;18.90;99.90;;;;;;5053046;28;20179;-64
2022/07/29 02:32:29;;;;;;;6.00;4.00;;;18.90;99.90;;;;;;5053259;28;20175;-64
2022/07/29 02:34:56;;;;;;;5.20;4.23;;;18.90;99.90;;;;;;5052872;28;20202;-64
2022/07/29 02:37:24;;;;;;;6.40;4.67;;;18.80;99.90;;;;;;5053341;28;20221;-62
2022/07/29 02:39:53;;;;;;;6.23;3.80;;;18.80;99.90;;;;;;5052985;28;20213;-64
2022/07/29 02:42:20;;;;;;;5.53;4.00;;;18.70;99.90;;;;;;5053230;28;20183;-64
2022/07/29 02:44:46;;;;;;;6.67;3.80;;;18.70;99.90;;;;;;5052393;28;20684;-63
2022/07/29 02:47:11;;;;;;;4.30;4.00;;;18.70;99.90;;;;;;5053222;28;20266;-64
2022/07/29 02:49:40;;;;;;;4.47;4.00;;;18.70;99.90;;;;;;5052724;28;20265;-64
2022/07/29 02:52:27;;;;;;;4.60;3.87;;;18.60;99.90;;;;;;5053085;28;20668;-64
2022/07/29 02:55:05;;;;;;;5.00;4.57;;;18.60;99.90;;;;;;5033690;28;20195;-63
2022/07/29 02:57:40;;;;;;;5.47;4.93;;;18.50;99.90;;;;;;5052826;28;20174;-64
2022/07/29 03:00:08;;;;;;;5.33;4.90;;;18.40;99.90;;;;;;5033027;28;20178;-64
2022/07/29 03:02:39;;;;;;;5.47;5.03;;;18.40;99.90;;;;;;5032905;28;20179;-65
2022/07/29 03:05:08;;;;;;;6.07;4.90;;;18.40;99.90;;;;;;5052512;28;20197;-63
2022/07/29 03:07:35;;;;;;;5.43;4.77;;;18.40;99.90;;;;;;5052759;28;20563;-63
2022/07/29 03:10:02;;;;;;;8.80;4.57;;;18.30;99.90;;;;;;5052502;28;20186;-63
2022/07/29 03:12:29;;;;;;;5.00;4.60;;;18.30;99.90;;;;;;5052706;28;20566;-63
2022/07/29 03:14:56;;;;;;;5.30;4.10;;;18.30;99.90;;;;;;5051991;28;20741;-63
2022/07/29 03:17:22;;;;;;;8.30;4.53;;;18.30;99.90;;;;;;5052444;28;20187;-63
2022/07/29 03:19:48;;;;;;;5.50;4.03;;;18.30;99.90;;;;;;5052021;28;20190;-63
2022/07/29 03:22:14;;;;;;;5.77;4.10;;;18.20;99.90;;;;;;5052086;28;20182;-66
2022/07/29 03:24:40;;;;;;;5.63;4.47;;;18.20;99.90;;;;;;5051876;28;20195;-66
2022/07/29 03:27:06;;;;;;;6.33;4.73;;;18.20;99.90;;;;;;5051300;28;20183;-64
2022/07/29 03:29:32;;;;;;;5.40;5.00;;;18.10;99.90;;;;;;5052334;28;20182;-64
2022/07/29 03:31:58;;;;;;;6.00;4.33;;;18.00;99.90;;;;;;5052159;28;20207;-65
2022/07/29 03:34:23;;;;;;;4.87;4.57;;;18.00;99.90;;;;;;5051831;28;20213;-66
2022/07/29 03:36:50;;;;;;;4.83;4.53;;;17.90;99.90;;;;;;5051831;28;20179;-63
2022/07/29 03:39:21;;;;;;;5.30;4.90;;;17.80;99.90;;;;;;5052273;28;20659;-61
2022/07/29 03:41:51;;;;;;;9.13;4.60;;;17.70;99.90;;;;;;5052021;28;20175;-62
2022/07/29 03:44:19;;;;;;;6.57;4.57;;;17.60;99.90;;;;;;5051698;28;20730;-63
2022/07/29 03:46:46;;;;;;;4.60;4.40;;;17.50;99.90;;;;;;5051600;28;20232;-61
2022/07/29 03:49:14;;;;;;;5.60;5.20;;;17.50;99.90;;;;;;5052118;28;20203;-59
2022/07/29 03:51:40;;;;;;;5.20;4.73;;;17.50;99.90;;;;;;5051709;28;20926;-66
2022/07/29 03:54:06;;;;;;;4.60;4.30;;;17.50;99.90;;;;;;5051363;28;20199;-63
2022/07/29 03:56:37;;;;;;;5.17;4.20;;;17.50;99.90;;;;;;5051619;28;20289;-63
2022/07/29 03:59:03;;;;;;;4.50;4.10;;;17.50;99.90;;;;;;5051737;28;20167;-63
2022/07/29 04:01:30;;;;;;;5.73;4.07;;;17.50;99.90;;;;;;5051392;28;20232;-66
2022/07/29 04:03:56;;;;;;;5.17;4.73;;;17.50;99.90;;;;;;5051450;28;20261;-66
2022/07/29 04:06:22;;;;;;;5.43;4.90;;;17.60;99.90;;;;;;5051750;28;20615;-66
2022/07/29 04:08:48;;;;;;;5.03;4.70;;;17.60;99.90;;;;;;5051505;28;20254;-66
2022/07/29 04:11:13;;;;;;;5.77;4.47;;;17.60;99.90;;;;;;5051605;28;20604;-65
2022/07/29 04:13:39;;;;;;;6.50;4.77;;;17.60;99.90;;;;;;5051321;28;20289;-63
2022/07/29 04:16:04;;;;;;;5.77;4.53;;;17.50;99.90;;;;;;5051440;28;20186;-61
2022/07/29 04:18:30;;;;;;;5.20;4.70;;;17.30;99.90;;;;;;5051648;28;20171;-63
2022/07/29 04:20:56;;;;;;;7.30;4.80;;;17.20;99.90;;;;;;5051530;28;20553;-63
2022/07/29 04:23:21;;;;;;;6.50;5.30;;;17.10;99.90;;;;;;5051531;28;20267;-64
2022/07/29 04:25:47;;;;;;;7.63;5.13;;;16.90;99.90;;;;;;5051176;28;20206;-61
2022/07/29 04:28:12;;;;;;;5.10;4.60;;;16.80;99.90;;;;;;5051823;28;20175;-64
2022/07/29 04:30:38;;;;;;;7.53;5.53;;;16.80;99.90;;;;;;5051418;28;20211;-64
2022/07/29 04:33:06;;;;;;;7.73;5.33;;;16.80;99.90;;;;;;5051590;28;20179;-61
2022/07/29 04:35:37;;;;;;;5.43;5.00;;;16.80;99.90;;;;;;5050739;28;20222;-64
2022/07/29 04:38:04;;;;;;;5.33;4.80;;;16.70;99.90;;;;;;5053891;28;20266;-63
2022/07/29 04:40:29;;;;;;;5.73;4.93;;;16.70;99.90;;;;;;5055460;28;20274;-62
2022/07/29 04:42:55;;;;;;;5.40;4.93;;;16.60;99.90;;;;;;5055369;28;20273;-62
2022/07/29 04:45:21;;;;;;;5.20;4.80;;;16.50;99.90;;;;;;5055324;28;20217;-64
2022/07/29 04:47:46;;;;;;;7.80;5.20;;;16.50;99.90;;;;;;5055495;28;20195;-63
2022/07/29 04:50:12;;;;;;;6.30;5.70;;;16.60;99.90;;;;;;5055318;28;20258;-64
2022/07/29 04:52:38;;;;;;;6.13;5.53;;;16.60;99.90;;;;;;5055368;28;20216;-62
2022/07/29 04:55:05;;;;;;;6.23;5.63;;;16.60;99.90;;;;;;5054885;28;20244;-63
2022/07/29 04:57:30;;;;;;;5.30;4.90;;;16.70;99.90;;;;;;5055200;28;20167;-65
2022/07/29 04:59:56;;;;;;;4.77;4.47;;;16.70;99.90;;;;;;5055475;28;20183;-64
2022/07/29 05:02:21;;;;;;;6.27;5.67;;;16.80;99.90;;;;;;5055088;28;20171;-64
2022/07/29 05:04:47;;;;;;;5.30;5.00;;;16.90;99.90;;;;;;5054558;28;20207;-65
2022/07/29 05:07:14;;;;;;;9.03;5.50;;;16.90;99.90;;;;;;5055046;28;20228;-64
2022/07/29 05:09:39;;;;;;;7.27;5.67;;;16.90;99.90;;;;;;5054707;28;20193;-64
2022/07/29 05:12:06;;;;;;;6.40;5.83;;;17.10;99.90;;;;;;5054948;28;20210;-65
2022/07/29 05:14:32;;;;;;;6.30;5.80;;;17.10;99.90;;;;;;5054133;28;20234;-63
2022/07/29 05:16:57;;;;;;;6.40;5.90;;;17.20;99.90;;;;;;5054585;28;20210;-63
2022/07/29 05:19:23;;;;;;;5.90;5.50;;;17.30;99.90;;;;;;5054865;28;20201;-65
2022/07/29 05:21:49;;;;;;;6.53;5.40;;;17.40;99.90;;;;;;5054803;28;20187;-63
2022/07/29 05:24:14;;;;;;;7.37;6.00;;;17.50;99.90;;;;;;5054149;28;20577;-64
2022/07/29 05:26:40;;;;;;;6.50;6.03;;;17.50;99.90;;;;;;5054950;28;20234;-64
2022/07/29 05:29:06;;;;;;;6.13;5.60;;;17.50;99.90;;;;;;5054528;28;20273;-64
2022/07/29 05:31:31;;;;;;;7.57;6.53;;;17.60;99.90;;;;;;5054372;28;20203;-65
2022/07/29 05:33:57;;;;;;;6.67;5.93;;;17.70;99.90;;;;;;5054119;28;20195;-66
2022/07/29 05:36:23;;;;;;;6.67;6.07;;;17.70;99.90;;;;;;5054777;28;20659;-65
2022/07/29 05:38:48;;;;;;;5.70;5.27;;;17.80;99.90;;;;;;5054274;28;20179;-65
2022/07/29 05:41:14;;;;;;;8.00;5.37;;;18.00;99.90;;;;;;5054464;28;20178;-65
2022/07/29 05:43:39;;;;;;;6.33;4.97;;;18.20;99.90;;;;;;5053970;28;20273;-65
2022/07/29 05:46:05;;;;;;;5.20;4.70;;;18.40;99.90;;;;;;5054044;28;20194;-64
2022/07/29 05:48:31;;;;;;;5.60;4.73;;;18.70;99.90;;;;;;5052990;28;20179;-65
2022/07/29 05:50:56;;;;;;;5.20;4.80;;;18.90;99.90;;;;;;5053686;28;20692;-65
2022/07/29 05:53:22;;;;;;;6.77;4.67;;;19.10;99.90;;;;;;5053901;28;20173;-65
2022/07/29 05:55:49;;;;;;;5.40;4.43;;;19.10;99.90;;;;;;5053852;28;20563;-64
2022/07/29 05:58:15;;;;;;;6.63;4.90;;;19.30;99.90;;;;;;5054168;28;20182;-62
2022/07/29 06:00:40;;;;;;;9.03;3.90;;;19.40;99.90;;;;;;5053944;28;20179;-64
2022/07/29 06:03:06;;;;;;;6.20;4.70;;;19.40;99.90;;;;;;5053381;28;20178;-64
2022/07/29 06:05:32;;;;;;;8.30;5.03;;;19.40;99.90;;;;;;5053463;28;20206;-63
2022/07/29 06:07:57;;;;;;;4.63;4.33;;;19.50;99.90;;;;;;5054153;28;20202;-63
2022/07/29 06:10:24;;;;;;;9.00;4.97;;;19.60;99.90;;;;;;5052328;28;20289;-62
2022/07/29 06:12:50;;;;;;;5.97;5.17;;;19.60;99.90;;;;;;5035675;28;20198;-62
2022/07/29 06:15:15;;;;;;;5.07;4.57;;;19.60;99.90;;;;;;5053092;28;20203;-63
2022/07/29 06:17:41;;;;;;;6.90;6.37;;;19.60;99.90;;;;;;5053614;28;20537;-64
2022/07/29 06:20:07;;;;;;;5.87;5.37;;;19.70;99.90;;;;;;5053453;28;20194;-64
2022/07/29 06:22:32;;;;;;;7.63;6.93;;;19.70;99.90;;;;;;5053496;28;20182;-65
2022/07/29 06:24:58;;;;;;;8.13;5.60;;;19.70;99.90;;;;;;5052719;28;20221;-64
2022/07/29 06:27:23;;;;;;;9.95;5.60;;;19.70;99.90;;;;;;5053428;28;20253;-64
2022/07/29 06:29:49;;;;;;;6.53;5.20;;;19.70;99.90;;;;;;5053323;28;20632;-64
2022/07/29 06:32:15;;;;;;;5.50;5.03;;;19.70;99.90;;;;;;5053098;28;20207;-65
2022/07/29 06:34:40;;;;;;;5.30;4.90;;;19.60;99.90;;;;;;5052884;28;20254;-64
2022/07/29 06:37:07;;;;;;;6.37;5.83;;;19.50;99.90;;;;;;5053194;28;20668;-64
2022/07/29 06:39:37;;;;;;;4.83;4.53;;;19.60;99.90;;;;;;5052915;28;20183;-64
2022/07/29 06:42:04;;;;;;;7.43;4.77;;;19.50;99.90;;;;;;5053202;28;20183;-64
2022/07/29 06:44:30;;;;;;;7.77;5.80;;;19.40;99.90;;;;;;5052210;28;20220;-64
2022/07/29 06:46:56;;;;;;;6.47;5.93;;;19.30;99.90;;;;;;5052639;28;20171;-64
2022/07/29 06:49:24;;;;;;;6.90;5.87;;;19.10;99.90;;;;;;5052922;28;20188;-64
2022/07/29 06:51:49;;;;;;;5.57;5.10;;;18.90;99.90;;;;;;5052862;28;20667;-64
2022/07/29 06:54:15;;;;;;;8.43;5.70;;;18.80;99.90;;;;;;5052410;28;20211;-64
2022/07/29 06:56:41;;;;;;;6.10;5.50;;;18.60;99.90;;;;;;5053005;28;20179;-63
2022/07/29 06:59:08;;;;;;;6.43;5.83;;;18.50;99.90;;;;;;5052607;28;20190;-63
2022/07/29 07:01:34;;;;;;;6.57;5.90;;;18.40;99.90;;;;;;5052647;28;20680;-64
2022/07/29 07:04:00;;;;;;;10.23;5.93;;;18.30;99.90;;;;;;5052411;28;20190;-64
2022/07/29 07:06:26;;;;;;;9.53;6.57;;;18.10;99.90;;;;;;5032943;28;20667;-64
2022/07/29 07:08:51;;;;;;;13.23;6.27;;;17.90;99.90;;;;;;5032803;28;20175;-64
2022/07/29 07:11:17;;;;;;;7.97;7.23;;;17.70;99.90;;;;;;5051319;28;20206;-63
2022/07/29 07:13:43;;;;;;;8.30;7.67;;;17.50;99.90;;;;;;5052286;28;20174;-64
2022/07/29 07:16:08;;;;;;;8.13;7.33;;;17.40;99.90;;;;;;5052303;28;20611;-63
2022/07/29 07:18:34;;;;;;;8.60;7.33;;;17.30;99.90;;;;;;5052618;28;20229;-65
2022/07/29 07:20:59;;;;;;;9.17;7.80;;;17.10;99.90;;;;;;5052259;28;20187;-64
2022/07/29 07:23:25;;;;;;;8.63;7.03;;;17.10;99.90;;;;;;5052466;28;20209;-64
2022/07/29 07:25:51;;;;;;;7.53;6.90;;;17.00;99.90;;;;;;5052085;28;20257;-63
2022/07/29 07:28:17;;;;;;;7.23;6.53;;;16.90;99.90;;;;;;5052510;28;20182;-64
2022/07/29 07:30:42;;;;;;;12.07;7.30;;;16.90;99.90;;;;;;5051823;28;20202;-66
2022/07/29 07:33:09;;;;;;;7.90;7.17;;;16.90;99.90;;;;;;5052337;28;20167;-65
2022/07/29 07:35:34;;;;;;;8.87;7.97;;;16.90;99.90;;;;;;5051507;28;20198;-66
2022/07/29 07:38:00;;;;;;;8.17;7.47;;;17.00;99.90;;;;;;5052304;28;20264;-64
2022/07/29 07:40:26;;;;;;;8.83;8.23;;;17.10;99.90;;;;;;5051806;28;20182;-63
2022/07/29 07:42:51;;;;;;;8.90;8.20;;;17.20;99.90;;;;;;5052428;28;20605;-65
2022/07/29 07:45:17;;;;;;;10.33;7.97;;;17.40;99.90;;;;;;5051367;28;20229;-64
2022/07/29 07:47:43;;;;;;;7.20;6.53;;;17.50;99.90;;;;;;5052145;28;20175;-64
2022/07/29 07:50:10;;;;;;;10.60;6.30;;;17.60;99.90;;;;;;5051653;28;20197;-64
2022/07/29 07:52:47;;;;;;;8.37;7.77;;;17.60;99.90;;;;;;5051999;28;20207;-64
2022/07/29 07:55:13;;;;;;;7.33;6.67;;;17.60;99.90;;;;;;5051261;28;20228;-65
2022/07/29 07:57:38;;;;;;;7.37;6.83;;;17.60;99.90;;;;;;5051916;28;20202;-64
2022/07/29 08:00:05;;;;;;;8.53;7.63;;;17.60;99.90;;;;;;5051729;28;20260;-64
2022/07/29 08:02:31;;;;;;;10.03;9.43;;;17.70;99.90;;;;;;5051768;28;20217;-64
2022/07/29 08:04:57;;;;;;;8.27;7.53;;;17.80;99.90;;;;;;5051111;28;20546;-65
2022/07/29 08:07:23;;;;;;;9.27;8.47;;;17.90;99.90;;;;;;5051715;28;20224;-65
2022/07/29 08:09:48;;;;;;;9.03;8.13;;;17.90;99.90;;;;;;5033824;28;20174;-67
2022/07/29 08:12:14;;;;;;;7.90;7.30;;;17.90;99.90;;;;;;5051324;28;20563;-66
2022/07/29 08:14:39;;;;;;;8.13;7.13;;;18.00;99.90;;;;;;5051013;28;20191;-65
2022/07/29 08:17:05;;;;;;;8.10;7.50;;;18.00;99.90;;;;;;5050905;28;20251;-65
2022/07/29 08:19:31;;;;;;;9.97;8.80;;;18.00;99.90;;;;;;5051330;28;20179;-64
2022/07/29 08:21:56;;;;;;;8.47;7.77;;;18.00;99.90;;;;;;5050491;28;20205;-65
2022/07/29 08:27:07;;;;;;;7.20;6.27;;;18.00;99.90;;;;;;5051310;28;20178;-65
2022/07/29 08:29:32;;;;;;;8.50;7.80;;;17.90;99.90;;;;;;5051090;28;20546;-65
2022/07/29 08:31:58;;;;;;;10.47;7.73;;;17.90;99.90;;;;;;5050682;28;20228;-65
2022/07/29 08:34:24;;;;;;;10.27;8.53;;;18.00;99.90;;;;;;5050821;28;20549;-65
2022/07/29 08:36:49;;;;;;;9.77;7.73;;;18.00;99.90;;;;;;5051079;28;20209;-65
2022/07/29 08:39:15;;;;;;;8.20;7.50;;;18.10;99.90;;;;;;5051362;28;20213;-65
2022/07/29 08:41:40;;;;;;;8.63;7.17;;;18.10;99.90;;;;;;5050866;28;20201;-63
2022/07/29 08:44:06;;;;;;;7.27;6.10;;;18.20;99.90;;;;;;5050780;28;20229;-64
2022/07/29 08:46:32;;;;;;;8.93;8.00;;;18.20;99.90;;;;;;5050877;28;20458;-64
2022/07/29 08:48:57;;;;;;;7.10;6.43;;;18.30;99.90;;;;;;5051125;28;20175;-65
2022/07/29 08:51:27;;;;;;;8.63;6.23;;;18.50;99.90;;;;;;5050776;28;20313;-65
2022/07/29 08:53:54;;;;;;;7.10;6.20;;;18.60;99.90;;;;;;5050349;28;20221;-66
2022/07/29 08:56:21;;;;;;;6.20;5.80;;;18.60;99.90;;;;;;5051292;28;20228;-65
2022/07/29 08:58:47;;;;;;;7.03;6.30;;;18.60;99.90;;;;;;5051314;28;20167;-65
2022/07/29 09:01:16;;;;;;;6.87;6.20;;;18.60;99.90;;;;;;5050804;28;20175;-65
2022/07/29 09:03:45;;;;;;;7.30;5.97;;;18.70;99.90;;;;;;5051090;28;20170;-64
2022/07/29 09:06:14;;;;;;;9.63;6.00;;;18.70;99.90;;;;;;5050868;28;20202;-62
2022/07/29 09:08:41;;;;;;;6.80;6.10;;;18.80;99.90;;;;;;5051087;28;20167;-64
2022/07/29 09:11:07;;;;;;;6.53;6.03;;;18.90;99.90;;;;;;5050344;28;20199;-64
2022/07/29 09:13:33;;;;;;;8.40;6.40;;;19.00;99.90;;;;;;5049785;28;20555;-64
2022/07/29 09:15:58;;;;;;;6.77;6.17;;;19.20;99.90;;;;;;5050631;28;20202;-64
2022/07/29 09:18:42;;;;;;;8.30;7.47;;;19.40;99.90;;;;;;5051238;28;20703;-65
2022/07/29 09:24:08;;;;;;;7.67;7.00;;;19.70;99.90;;;;;;5071303;28;20293;-64
2022/07/29 09:26:41;;;;;;;7.80;7.10;;;19.80;99.90;;;;;;5034424;28;20203;-65
2022/07/29 09:29:09;;;;;;;6.70;6.20;;;20.00;99.90;;;;;;5036768;28;20263;-66
2022/07/29 09:31:38;;;;;;;8.97;6.47;;;20.10;99.90;;;;;;5054464;28;20209;-63
2022/07/29 09:34:05;;;;;;;8.87;7.77;;;20.40;99.90;;;;;;5053958;28;20194;-63
2022/07/29 09:36:31;;;;;;;7.60;7.10;;;20.90;99.90;;;;;;5054362;28;20175;-64
2022/07/29 09:39:00;;;;;;;8.98;8.20;;;21.80;99.90;;;;;;5054269;28;20178;-67
2022/07/29 09:41:27;;;;;;;5.47;4.95;;;22.60;99.90;;;;;;5054237;28;20805;-64
2022/07/29 09:43:57;;;;;;;4.32;4.00;;;23.40;99.90;;;;;;5053548;28;20182;-63
2022/07/29 09:46:24;;;;;;;4.95;4.60;;;23.90;99.90;;;;;;5053887;28;20713;-64
2022/07/29 09:49:12;;;;;;;6.28;4.85;;;24.10;99.90;;;;;;5053753;28;20229;-63
2022/07/29 09:51:38;;;;;;;8.05;4.60;;;24.30;99.90;;;;;;5053865;28;20202;-64
2022/07/29 09:54:23;;;;;;;10.18;5.50;;;24.40;99.90;;;;;;5053604;28;20194;-64
2022/07/29 09:56:49;;;;;;;8.60;5.40;;;24.40;99.90;;;;;;5054086;28;20182;-64
2022/07/29 09:59:15;;;;;;;7.97;5.78;;;24.20;99.90;;;;;;5053565;28;20510;-63
2022/07/29 10:01:41;;;;;;;6.60;6.00;;;24.10;99.90;;;;;;5053711;28;20193;-64
2022/07/29 10:04:06;;;;;;;6.53;5.57;;;24.00;99.90;;;;;;5053167;28;20210;-63
2022/07/29 10:06:32;;;;;;;9.43;6.43;;;23.90;99.90;;;;;;5054089;28;20254;-63
2022/07/29 10:09:11;;;;;;;7.18;6.47;;;23.60;99.90;;;;;;5053694;28;20208;-63
2022/07/29 10:11:37;;;;;;;7.50;5.53;;;23.20;99.90;;;;;;5053683;28;20297;-63
2022/07/29 10:14:04;;;;;;;7.47;6.47;;;22.90;99.90;;;;;;5053404;28;20203;-63
2022/07/29 10:16:33;;;;;;;6.55;5.95;;;22.60;99.90;;;;;;5053779;28;20175;-64
2022/07/29 10:19:00;;;;;;;7.45;6.65;;;22.30;99.90;;;;;;5053500;28;20175;-64
2022/07/29 10:21:26;;;;;;;7.90;7.07;;;22.20;99.90;;;;;;5053662;28;20225;-64
2022/07/29 10:23:53;;;;;;;11.73;7.35;;;22.10;99.90;;;;;;5053218;28;20187;-65
2022/07/29 10:26:19;;;;;;;13.40;7.35;;;22.10;99.90;;;;;;5053461;28;20258;-64
2022/07/29 10:28:45;;;;;;;6.43;5.82;;;22.10;99.90;;;;;;5053364;28;20253;-63
2022/07/29 10:31:22;;;;;;;8.77;7.38;;;22.10;99.90;;;;;;5053349;28;20278;-64
2022/07/29 10:33:47;;;;;;;13.45;12.23;;;22.30;99.90;;;;;;5052762;28;20179;-64
2022/07/29 10:36:34;;;;;;;8.43;6.68;;;22.60;99.90;;;;;;5052869;28;20527;-63
2022/07/29 10:39:15;;;;;;;8.38;7.68;;;22.80;99.90;;;;;;5053334;28;20175;-65
2022/07/29 10:42:11;;;;;;;13.02;7.28;;;23.20;99.90;;;;;;5053200;28;20266;-65
2022/07/29 10:44:41;;;;;;;10.77;6.03;;;23.70;99.90;;;;;;5053056;28;20225;-64
2022/07/29 10:47:07;;;;;;;5.90;5.07;;;24.00;99.90;;;;;;5053312;28;20313;-64
2022/07/29 10:49:32;;;;;;;7.47;5.00;;;24.30;99.90;;;;;;5053010;28;20226;-64
2022/07/29 10:52:03;;;;;;;5.93;5.15;;;24.60;99.90;;;;;;5052881;28;20217;-64
2022/07/29 10:54:35;;;;;;;9.18;4.82;;;25.10;99.90;;;;;;5052829;28;20182;-64
2022/07/29 10:57:21;;;;;;;7.05;4.78;;;25.50;99.90;;;;;;5052716;28;20175;-65
2022/07/29 11:00:08;;;;;;;6.32;4.88;;;26.20;99.90;;;;;;5052744;28;20175;-65
2022/07/29 11:02:34;;;;;;;4.00;3.58;;;26.90;99.90;;;;;;5052362;28;20174;-65
2022/07/29 11:05:14;;;;;;;5.40;4.32;;;28.00;99.90;;;;;;5052311;28;20195;-66
2022/07/29 11:08:11;;;;;;;9.15;4.03;;;28.60;99.90;;;;;;5052815;28;20257;-66
2022/07/29 11:10:38;;;;;;;3.92;3.60;;;28.80;99.90;;;;;;5052520;28;20573;-66
2022/07/29 11:13:04;;;;;;;3.88;3.65;;;29.40;99.90;;;;;;5052835;28;20171;-65
2022/07/29 11:15:56;;;;;;;5.97;3.72;;;29.50;99.90;;;;;;5050517;28;20571;-65
2022/07/29 11:18:21;;;;;;;4.43;4.00;;;29.30;99.90;;;;;;5052009;28;20186;-66
2022/07/29 11:20:49;;;;;;;5.63;4.00;;;29.10;99.90;;;;;;5052631;28;20174;-65
2022/07/29 11:23:21;;;;;;;5.97;3.67;;;29.20;99.90;;;;;;5052318;28;20170;-65
2022/07/29 11:26:09;;;;;;;4.72;3.45;;;29.20;99.90;;;;;;5032529;28;20260;-65
2022/07/29 11:28:38;;;;;;;5.68;3.92;;;28.90;99.90;;;;;;5044089;28;20656;-64
2022/07/29 11:31:05;;;;;;;4.10;3.70;;;28.50;99.90;;;;;;5052181;28;20203;-65
2022/07/29 11:33:32;;;;;;;5.72;3.65;;;28.50;99.90;;;;;;5051833;28;20656;-66
2022/07/29 11:36:23;;;;;;;4.68;3.53;;;28.80;99.90;;;;;;5051992;28;20664;-66
2022/07/29 11:38:49;;;;;;;6.28;3.30;;;29.50;99.90;;;;;;5049965;28;20187;-66
2022/07/29 11:41:22;;;;;;;4.40;3.45;;;29.60;99.90;;;;;;5051957;28;20171;-66
2022/07/29 11:43:58;;;;;;;3.97;3.47;;;29.50;99.90;;;;;;5051439;28;20175;-65
2022/07/29 11:46:49;;;;;;;4.95;3.30;;;29.40;99.90;;;;;;5051288;28;20178;-66
2022/07/29 11:49:25;;;;;;;6.25;3.67;;;29.50;99.90;;;;;;5051453;28;20178;-66
2022/07/29 11:52:00;;;;;;;4.38;3.53;;;29.50;99.90;;;;;;5051964;28;20571;-66
2022/07/29 11:54:33;;;;;;;4.30;3.50;;;29.40;99.90;;;;;;5051357;28;20270;-65
2022/07/29 11:56:59;;;;;;;5.05;3.25;;;29.40;99.90;;;;;;5032054;28;20171;-65
2022/07/29 11:59:26;;;;;;;5.03;4.13;;;29.40;99.90;;;;;;5031970;28;20222;-66
2022/07/29 12:01:58;;;;;;;4.07;3.58;;;29.40;99.90;;;;;;5050985;28;20190;-65
2022/07/29 12:04:26;;;;;;;6.57;3.65;;;29.30;99.90;;;;;;5051394;28;20194;-65
2022/07/29 12:06:53;;;;;;;5.78;3.35;;;29.20;99.90;;;;;;5051455;28;20178;-65
2022/07/29 12:09:19;;;;;;;6.22;4.22;;;29.00;99.90;;;;;;5051789;28;20174;-63
2022/07/29 12:11:46;;;;;;;6.78;4.15;;;28.80;99.90;;;;;;5049422;28;20207;-63
2022/07/29 12:14:31;;;;;;;5.35;3.80;;;28.60;99.90;;;;;;5051377;28;20197;-64
2022/07/29 12:16:58;;;;;;;7.10;4.20;;;28.30;99.90;;;;;;5051447;28;20171;-64
2022/07/29 12:19:24;;;;;;;7.35;4.10;;;28.20;99.90;;;;;;5051261;28;20262;-64
2022/07/29 12:21:51;;;;;;;4.63;3.95;;;28.10;99.90;;;;;;5051638;28;20682;-64
2022/07/29 12:24:18;;;;;;;4.57;3.67;;;28.50;99.90;;;;;;5050997;28;20202;-64
2022/07/29 12:26:51;;;;;;;4.40;4.00;;;28.50;99.90;;;;;;5051194;28;20193;-64
2022/07/29 12:29:17;;;;;;;6.32;3.80;;;28.40;99.90;;;;;;5051392;28;20692;-63
2022/07/29 12:31:44;;;;;;;11.60;3.92;;;28.00;99.90;;;;;;5051169;28;20213;-64
2022/07/29 12:34:11;;;;;;;7.28;3.40;;;28.20;99.90;;;;;;5051008;28;20203;-63
2022/07/29 12:36:37;;;;;;;5.85;4.10;;;28.40;99.90;;;;;;5033183;28;20551;-64
2022/07/29 12:39:04;;;;;;;5.25;4.00;;;28.60;99.90;;;;;;5051343;28;20545;-64
2022/07/29 12:41:30;;;;;;;8.23;4.68;;;28.40;99.90;;;;;;5050800;28;20186;-64
2022/07/29 12:43:56;;;;;;;5.47;4.20;;;28.60;99.90;;;;;;5050912;28;20268;-63
2022/07/29 12:46:22;;;;;;;5.10;4.50;;;28.70;99.90;;;;;;5051022;28;20187;-63
2022/07/29 12:48:54;;;;;;;6.75;5.43;;;28.90;99.90;;;;;;5051244;28;20179;-64
2022/07/29 12:51:38;;;;;;;5.22;4.50;;;29.10;99.90;;;;;;5050648;28;20298;-64
2022/07/29 12:54:15;;;;;;;6.57;5.13;;;28.90;99.90;;;;;;5051117;28;20205;-64
2022/07/29 12:56:42;;;;;;;5.72;4.78;;;28.70;99.90;;;;;;5050905;28;20580;-64
2022/07/29 12:59:26;;;;;;;6.07;4.95;;;28.80;99.90;;;;;;5053182;28;20319;-64